Time;durP1;ratioP1;P1;durP2;ratioP2;P2;SDS_P1;SDS_P2;PMS_P1;PMS_P2;Temp;Humidity;BMP_temperature;BMP_pressure;BME280_temperature;BME280_humidity;BME280_pressure;Samples;Min_cycle;Max_cycle;Signal;HPM_P1;HPM_P2
2023/08/14 00:02:14;;;;;;;;;;;;;;;;;;6186282;28;19917;-62
2023/08/14 00:05:14;;;;;;;;;;;;;;;;;;6189631;28;20361;-63
2023/08/14 00:08:14;;;;;;;;;;;;;;;;;;6189539;28;20360;-62
2023/08/14 00:11:14;;;;;;;;;;;;;;;;;;6186953;28;19925;-66
2023/08/14 00:14:14;;;;;;;;;;;;;;;;;;6189055;28;19965;-62
2023/08/14 00:17:14;;;;;;;;;;;;;;;;;;6194433;28;19914;-62
2023/08/14 00:20:15;;;;;;;;;;;;;;;;;;6198633;28;20173;-62
2023/08/14 00:23:15;;;;;;;;;;;;;;;;;;6214790;28;19917;-63
2023/08/14 00:26:15;;;;;;;;;;;;;;;;;;6198581;28;19918;-63
2023/08/14 00:29:15;;;;;;;;;;;;;;;;;;6194663;28;20485;-63
2023/08/14 00:32:15;;;;;;;;;;;;;;;;;;6196376;28;20048;-64
2023/08/14 00:35:16;;;;;;;;;;;;;;;;;;6205937;28;20333;-62
2023/08/14 00:38:16;;;;;;;;;;;;;;;;;;6208473;28;19917;-61
2023/08/14 00:41:16;;;;;;;;;;;;;;;;;;6192373;28;19961;-62
2023/08/14 00:44:16;;;;;;;;;;;;;;;;;;6190436;28;19941;-67
2023/08/14 00:47:16;;;;;;;;;;;;;;;;;;6200921;28;20383;-61
2023/08/14 00:50:16;;;;;;;;;;;;;;;;;;6187875;28;19914;-62
2023/08/14 00:53:16;;;;;;;;;;;;;;;;;;6196045;28;19909;-66
2023/08/14 00:56:16;;;;;;;;;;;;;;;;;;6200582;28;19949;-63
2023/08/14 00:59:16;;;;;;;;;;;;;;;;;;6203298;28;20012;-63
2023/08/14 01:02:16;;;;;;;;;;;;;;;;;;6187345;28;20364;-63
2023/08/14 01:05:17;;;;;;;;;;;;;;;;;;6188443;28;19909;-62
2023/08/14 01:08:17;;;;;;;;;;;;;;;;;;6182847;28;19913;-62
2023/08/14 01:11:17;;;;;;;;;;;;;;;;;;6183158;28;19922;-62
2023/08/14 01:14:17;;;;;;;;;;;;;;;;;;6182849;28;20090;-63
2023/08/14 01:17:17;;;;;;;;;;;;;;;;;;6178364;28;20398;-63
2023/08/14 01:20:17;;;;;;;;;;;;;;;;;;6180866;28;19952;-63
2023/08/14 01:23:17;;;;;;;;;;;;;;;;;;6183685;28;19924;-63
2023/08/14 01:26:17;;;;;;;;;;;;;;;;;;6183883;28;19909;-62
2023/08/14 01:29:17;;;;;;;;;;;;;;;;;;6180261;28;19918;-62
2023/08/14 01:32:18;;;;;;;;;;;;;;;;;;6180601;28;19925;-62
2023/08/14 01:35:18;;;;;;;;;;;;;;;;;;6186304;28;19913;-67
2023/08/14 01:38:18;;;;;;;;;;;;;;;;;;6183864;28;20582;-63
2023/08/14 01:41:20;;;;;;;;;;;;;;;;;;6177097;28;20563;-62
2023/08/14 01:44:20;;;;;;;;;;;;;;;;;;6182448;28;19917;-62
2023/08/14 01:47:20;;;;;;;;;;;;;;;;;;6181255;28;19925;-64
2023/08/14 01:50:20;;;;;;;;;;;;;;;;;;6182494;28;19953;-64
2023/08/14 01:53:20;;;;;;;;;;;;;;;;;;6181883;28;19925;-62
2023/08/14 01:56:20;;;;;;;;;;;;;;;;;;6180120;28;19994;-63
2023/08/14 01:59:20;;;;;;;;;;;;;;;;;;6184203;28;19930;-63
2023/08/14 02:02:20;;;;;;;;;;;;;;;;;;6182642;28;19909;-63
2023/08/14 02:05:21;;;;;;;;;;;;;;;;;;6182402;28;19945;-62
2023/08/14 02:08:21;;;;;;;;;;;;;;;;;;6173252;28;20004;-63
2023/08/14 02:11:21;;;;;;;;;;;;;;;;;;6182697;28;20272;-63
2023/08/14 02:14:21;;;;;;;;;;;;;;;;;;6180334;28;19914;-62
2023/08/14 02:17:21;;;;;;;;;;;;;;;;;;6177689;28;20356;-63
2023/08/14 02:20:21;;;;;;;;;;;;;;;;;;6183534;28;20020;-63
2023/08/14 02:23:21;;;;;;;;;;;;;;;;;;6181852;28;19917;-62
2023/08/14 02:26:22;;;;;;;;;;;;;;;;;;6183220;28;19960;-62
2023/08/14 02:29:22;;;;;;;;;;;;;;;;;;6178808;28;19975;-62
2023/08/14 02:32:22;;;;;;;;;;;;;;;;;;6180150;28;19964;-62
2023/08/14 02:35:22;;;;;;;;;;;;;;;;;;6181517;28;19909;-62
2023/08/14 02:38:22;;;;;;;;;;;;;;;;;;6187789;28;20012;-62
2023/08/14 02:41:22;;;;;;;;;;;;;;;;;;6182270;28;20016;-62
2023/08/14 02:44:22;;;;;;;;;;;;;;;;;;6181775;28;19913;-63
2023/08/14 02:47:22;;;;;;;;;;;;;;;;;;6183521;28;19932;-62
2023/08/14 02:50:23;;;;;;;;;;;;;;;;;;6179719;28;19920;-62
2023/08/14 02:53:23;;;;;;;;;;;;;;;;;;6185389;28;19910;-63
2023/08/14 02:56:23;;;;;;;;;;;;;;;;;;6183037;28;19910;-63
2023/08/14 02:59:23;;;;;;;;;;;;;;;;;;6180282;28;19973;-62
2023/08/14 03:02:23;;;;;;;;;;;;;;;;;;6180776;28;19991;-62
2023/08/14 03:05:23;;;;;;;;;;;;;;;;;;6181247;28;19910;-62
2023/08/14 03:08:23;;;;;;;;;;;;;;;;;;6183038;28;19976;-63
2023/08/14 03:11:24;;;;;;;;;;;;;;;;;;6187241;28;20482;-62
2023/08/14 03:14:24;;;;;;;;;;;;;;;;;;6184534;28;19918;-63
2023/08/14 03:17:24;;;;;;;;;;;;;;;;;;6185465;28;19928;-62
2023/08/14 03:20:24;;;;;;;;;;;;;;;;;;6185202;28;19913;-63
2023/08/14 03:23:24;;;;;;;;;;;;;;;;;;6182466;28;19917;-63
2023/08/14 03:26:24;;;;;;;;;;;;;;;;;;6184626;28;19957;-64
2023/08/14 03:29:24;;;;;;;;;;;;;;;;;;6179434;28;19909;-63
2023/08/14 03:32:25;;;;;;;;;;;;;;;;;;6185391;28;20376;-62
2023/08/14 03:35:25;;;;;;;;;;;;;;;;;;6185098;28;20317;-62
2023/08/14 03:38:25;;;;;;;;;;;;;;;;;;6183750;28;20330;-62
2023/08/14 03:41:25;;;;;;;;;;;;;;;;;;6194578;28;20414;-64
2023/08/14 03:44:25;;;;;;;;;;;;;;;;;;6188355;28;19921;-63
2023/08/14 03:47:25;;;;;;;;;;;;;;;;;;6185265;28;21269;-63
2023/08/14 03:50:25;;;;;;;;;;;;;;;;;;6191104;28;20387;-62
2023/08/14 03:53:25;;;;;;;;;;;;;;;;;;6190271;28;19921;-63
2023/08/14 03:56:25;;;;;;;;;;;;;;;;;;6185609;28;19997;-62
2023/08/14 03:59:26;;;;;;;;;;;;;;;;;;6183784;28;20056;-62
2023/08/14 04:02:26;;;;;;;;;;;;;;;;;;6185432;28;19914;-62
2023/08/14 04:05:26;;;;;;;;;;;;;;;;;;6188382;28;19914;-62
2023/08/14 04:08:26;;;;;;;;;;;;;;;;;;6189069;28;19936;-62
2023/08/14 04:11:26;;;;;;;;;;;;;;;;;;6188469;28;19920;-64
2023/08/14 04:14:26;;;;;;;;;;;;;;;;;;6186006;28;19971;-68
2023/08/14 04:17:26;;;;;;;;;;;;;;;;;;6183397;28;19917;-63
2023/08/14 04:20:26;;;;;;;;;;;;;;;;;;6182570;28;19979;-62
2023/08/14 04:23:28;;;;;;;;;;;;;;;;;;6184409;28;19917;-63
2023/08/14 04:26:28;;;;;;;;;;;;;;;;;;6185525;28;19917;-62
2023/08/14 04:29:28;;;;;;;;;;;;;;;;;;6179274;28;19965;-63
2023/08/14 04:32:28;;;;;;;;;;;;;;;;;;6179856;28;19926;-62
2023/08/14 04:35:29;;;;;;;;;;;;;;;;;;6193661;28;20012;-62
2023/08/14 04:38:29;;;;;;;;;;;;;;;;;;6212596;28;19916;-62
2023/08/14 04:41:29;;;;;;;;;;;;;;;;;;6197050;28;20290;-62
2023/08/14 04:44:29;;;;;;;;;;;;;;;;;;6209851;28;19913;-62
2023/08/14 04:47:29;;;;;;;;;;;;;;;;;;6213077;28;19910;-62
2023/08/14 04:50:29;;;;;;;;;;;;;;;;;;6200705;28;19917;-62
2023/08/14 04:53:29;;;;;;;;;;;;;;;;;;6202142;28;19913;-62
2023/08/14 04:56:31;;;;;;;;;;;;;;;;;;6215612;28;19909;-67
2023/08/14 04:59:31;;;;;;;;;;;;;;;;;;6201330;28;19929;-63
2023/08/14 05:02:31;;;;;;;;;;;;;;;;;;6197869;28;19910;-62
2023/08/14 05:05:31;;;;;;;;;;;;;;;;;;6197271;28;19918;-62
2023/08/14 05:08:31;;;;;;;;;;;;;;;;;;6196921;28;19909;-63
2023/08/14 05:11:31;;;;;;;;;;;;;;;;;;6196567;28;19914;-63
2023/08/14 05:14:31;;;;;;;;;;;;;;;;;;6195700;28;20451;-63
2023/08/14 05:17:31;;;;;;;;;;;;;;;;;;6185898;28;19920;-62
2023/08/14 05:20:31;;;;;;;;;;;;;;;;;;6192275;28;19910;-63
2023/08/14 05:23:32;;;;;;;;;;;;;;;;;;6185052;28;19921;-62
2023/08/14 05:26:32;;;;;;;;;;;;;;;;;;6183800;28;20280;-62
2023/08/14 05:29:32;;;;;;;;;;;;;;;;;;6190263;28;20016;-62
2023/08/14 05:32:32;;;;;;;;;;;;;;;;;;6190870;28;19914;-63
2023/08/14 05:35:32;;;;;;;;;;;;;;;;;;6197008;28;19935;-63
2023/08/14 05:38:32;;;;;;;;;;;;;;;;;;6190313;28;19980;-68
2023/08/14 05:41:32;;;;;;;;;;;;;;;;;;6196742;28;19913;-62
2023/08/14 05:44:32;;;;;;;;;;;;;;;;;;6193702;28;20373;-62
2023/08/14 05:47:33;;;;;;;;;;;;;;;;;;6187282;28;19910;-62
2023/08/14 05:50:33;;;;;;;;;;;;;;;;;;6185167;28;20013;-62
2023/08/14 05:53:33;;;;;;;;;;;;;;;;;;6191878;28;19910;-62
2023/08/14 05:56:33;;;;;;;;;;;;;;;;;;6196639;28;19914;-62
2023/08/14 05:59:33;;;;;;;;;;;;;;;;;;6188208;28;19932;-63
2023/08/14 06:02:33;;;;;;;;;;;;;;;;;;6183919;28;19910;-63
2023/08/14 06:05:33;;;;;;;;;;;;;;;;;;6184189;28;19932;-62
2023/08/14 06:08:34;;;;;;;;;;;;;;;;;;6185278;28;19913;-63
2023/08/14 06:11:34;;;;;;;;;;;;;;;;;;6183256;28;19913;-62
2023/08/14 06:14:34;;;;;;;;;;;;;;;;;;6183734;28;19918;-64
2023/08/14 06:17:34;;;;;;;;;;;;;;;;;;6182286;28;19913;-63
2023/08/14 06:20:34;;;;;;;;;;;;;;;;;;6197045;28;19912;-62
2023/08/14 06:23:35;;;;;;;;;;;;;;;;;;6188487;28;19929;-63
2023/08/14 06:26:35;;;;;;;;;;;;;;;;;;6179328;28;19909;-63
2023/08/14 06:29:35;;;;;;;;;;;;;;;;;;6182071;28;19964;-64
2023/08/14 06:32:35;;;;;;;;;;;;;;;;;;6177663;28;20032;-63
2023/08/14 06:35:35;;;;;;;;;;;;;;;;;;6180072;28;19909;-63
2023/08/14 06:38:35;;;;;;;;;;;;;;;;;;6181656;28;20387;-63
2023/08/14 06:41:35;;;;;;;;;;;;;;;;;;6180206;28;19918;-64
2023/08/14 06:44:35;;;;;;;;;;;;;;;;;;6190627;28;19913;-63
2023/08/14 06:47:36;;;;;;;;;;;;;;;;;;6198616;28;20395;-64
2023/08/14 06:50:36;;;;;;;;;;;;;;;;;;6182371;28;19932;-64
2023/08/14 06:53:36;;;;;;;;;;;;;;;;;;6186955;28;19968;-65
2023/08/14 06:56:36;;;;;;;;;;;;;;;;;;6183754;28;19913;-65
2023/08/14 06:59:36;;;;;;;;;;;;;;;;;;6190686;28;19976;-64
2023/08/14 07:02:36;;;;;;;;;;;;;;;;;;6186947;28;19987;-64
2023/08/14 07:05:37;;;;;;;;;;;;;;;;;;6184337;28;19917;-64
2023/08/14 07:08:37;;;;;;;;;;;;;;;;;;6181294;28;21788;-64
2023/08/14 07:11:38;;;;;;;;;;;;;;;;;;6183146;28;19997;-64
2023/08/14 07:14:38;;;;;;;;;;;;;;;;;;6183643;28;20030;-63
2023/08/14 07:17:39;;;;;;;;;;;;;;;;;;6185787;28;19949;-63
2023/08/14 07:20:39;;;;;;;;;;;;;;;;;;6186420;28;19932;-64
2023/08/14 07:23:39;;;;;;;;;;;;;;;;;;6185173;28;19918;-67
2023/08/14 07:26:39;;;;;;;;;;;;;;;;;;6187577;28;19910;-71
2023/08/14 07:29:39;;;;;;;;;;;;;;;;;;6187621;28;19942;-71
2023/08/14 07:32:39;;;;;;;;;;;;;;;;;;6183455;28;20373;-71
2023/08/14 07:35:39;;;;;;;;;;;;;;;;;;6186230;28;19909;-72
2023/08/14 07:38:40;;;;;;;;;;;;;;;;;;6187738;28;19921;-72
2023/08/14 07:41:40;;;;;;;;;;;;;;;;;;6186721;28;19925;-72
2023/08/14 07:44:40;;;;;;;;;;;;;;;;;;6183509;28;19918;-72
2023/08/14 07:47:40;;;;;;;;;;;;;;;;;;6191699;28;20345;-72
2023/08/14 07:50:40;;;;;;;;;;;;;;;;;;6186052;28;20625;-71
2023/08/14 07:53:40;;;;;;;;;;;;;;;;;;6189999;28;19914;-72
2023/08/14 07:56:40;;;;;;;;;;;;;;;;;;6191171;28;20387;-73
2023/08/14 07:59:41;;;;;;;;;;;;;;;;;;6183966;28;20005;-72
2023/08/14 08:02:41;;;;;;;;;;;;;;;;;;6186986;28;20382;-73
2023/08/14 08:05:42;;;;;;;;;;;;;;;;;;6183147;28;19917;-73
2023/08/14 08:08:42;;;;;;;;;;;;;;;;;;6194588;28;20008;-76
2023/08/14 08:11:42;;;;;;;;;;;;;;;;;;6186650;28;20387;-72
2023/08/14 08:14:42;;;;;;;;;;;;;;;;;;6186769;28;20012;-72
2023/08/14 08:17:42;;;;;;;;;;;;;;;;;;6189480;28;20763;-76
2023/08/14 08:20:42;;;;;;;;;;;;;;;;;;6188379;28;19964;-71
2023/08/14 08:23:42;;;;;;;;;;;;;;;;;;6197628;28;19932;-71
2023/08/14 08:26:43;;;;;;;;;;;;;;;;;;6198923;28;19950;-72
2023/08/14 08:29:43;;;;;;;;;;;;;;;;;;6199342;28;20008;-73
2023/08/14 08:32:43;;;;;;;;;;;;;;;;;;6196614;28;19916;-71
2023/08/14 08:35:43;;;;;;;;;;;;;;;;;;6195910;28;19910;-72
2023/08/14 08:38:43;;;;;;;;;;;;;;;;;;6176417;28;20001;-72
2023/08/14 08:41:43;;;;;;;;;;;;;;;;;;6183449;28;19917;-72
2023/08/14 08:44:44;;;;;;;;;;;;;;;;;;6193853;28;19933;-72
2023/08/14 08:47:44;;;;;;;;;;;;;;;;;;6210638;28;20063;-71
2023/08/14 08:50:44;;;;;;;;;;;;;;;;;;6223584;28;19909;-72
2023/08/14 08:53:44;;;;;;;;;;;;;;;;;;6201061;28;19929;-71
2023/08/14 08:56:45;;;;;;;;;;;;;;;;;;6199056;28;19925;-72
2023/08/14 08:59:45;;;;;;;;;;;;;;;;;;6198309;28;19932;-76
2023/08/14 09:02:45;;;;;;;;;;;;;;;;;;6197974;28;20391;-72
2023/08/14 09:05:45;;;;;;;;;;;;;;;;;;6206245;28;19953;-72
2023/08/14 09:08:45;;;;;;;;;;;;;;;;;;6197849;28;19968;-72
2023/08/14 09:11:45;;;;;;;;;;;;;;;;;;6194369;28;19913;-72
2023/08/14 09:14:45;;;;;;;;;;;;;;;;;;6197184;28;19917;-72
2023/08/14 09:17:46;;;;;;;;;;;;;;;;;;6197661;28;19910;-73
2023/08/14 09:20:46;;;;;;;;;;;;;;;;;;6199177;28;20155;-72
2023/08/14 09:23:46;;;;;;;;;;;;;;;;;;6198889;28;19960;-73
2023/08/14 09:26:46;;;;;;;;;;;;;;;;;;6179350;28;20386;-74
2023/08/14 09:29:46;;;;;;;;;;;;;;;;;;6196697;28;20004;-74
2023/08/14 09:32:46;;;;;;;;;;;;;;;;;;6196230;28;19913;-73
2023/08/14 09:35:46;;;;;;;;;;;;;;;;;;6197994;28;19913;-74
2023/08/14 09:38:46;;;;;;;;;;;;;;;;;;6197901;28;19914;-74
2023/08/14 09:41:47;;;;;;;;;;;;;;;;;;6197004;28;20347;-77
2023/08/14 09:44:47;;;;;;;;;;;;;;;;;;6197561;28;19945;-73
2023/08/14 09:47:47;;;;;;;;;;;;;;;;;;6197359;28;20000;-73
2023/08/14 09:50:48;;;;;;;;;;;;;;;;;;6197407;28;20256;-72
2023/08/14 09:53:48;;;;;;;;;;;;;;;;;;6198034;28;19956;-73
2023/08/14 09:56:51;;;;;;;;;;;;;;;;;;6218001;28;20020;-72
2023/08/14 09:59:51;;;;;;;;;;;;;;;;;;6205564;28;20395;-75
2023/08/14 10:02:51;;;;;;;;;;;;;;;;;;6197220;28;19929;-75
2023/08/14 10:05:51;;;;;;;;;;;;;;;;;;6204365;28;20040;-72
2023/08/14 10:08:51;;;;;;;;;;;;;;;;;;6210805;28;20036;-75
2023/08/14 10:11:52;;;;;;;;;;;;;;;;;;6196733;28;19913;-73
2023/08/14 10:14:52;;;;;;;;;;;;;;;;;;6196537;28;19956;-73
2023/08/14 10:17:52;;;;;;;;;;;;;;;;;;6196785;28;19996;-73
2023/08/14 10:20:52;;;;;;;;;;;;;;;;;;6200323;28;19910;-74
2023/08/14 10:23:52;;;;;;;;;;;;;;;;;;6218840;28;19905;-75
2023/08/14 10:26:52;;;;;;;;;;;;;;;;;;6197423;28;20044;-75
2023/08/14 10:29:52;;;;;;;;;;;;;;;;;;6209788;28;19912;-75
2023/08/14 10:32:52;;;;;;;;;;;;;;;;;;6212828;28;19937;-75
2023/08/14 10:35:56;;;;;;;;;;;;;;;;;;6180737;28;19968;-75
2023/08/14 10:38:56;;;;;;;;;;;;;;;;;;6204016;28;20425;-75
2023/08/14 10:41:56;;;;;;;;;;;;;;;;;;6214252;28;19909;-74
2023/08/14 10:44:56;;;;;;;;;;;;;;;;;;6197487;28;20098;-75
2023/08/14 10:47:56;;;;;;;;;;;;;;;;;;6198243;28;20008;-74
2023/08/14 10:50:56;;;;;;;;;;;;;;;;;;6197690;28;20001;-75
2023/08/14 10:53:56;;;;;;;;;;;;;;;;;;6197264;28;19909;-75
2023/08/14 10:56:56;;;;;;;;;;;;;;;;;;6203607;28;19936;-76
2023/08/14 10:59:57;;;;;;;;;;;;;;;;;;6203432;28;20389;-74
2023/08/14 11:02:57;;;;;;;;;;;;;;;;;;6196627;28;19913;-74
2023/08/14 11:05:57;;;;;;;;;;;;;;;;;;6187574;28;19975;-75
2023/08/14 11:08:57;;;;;;;;;;;;;;;;;;6196799;28;20355;-75
2023/08/14 11:11:58;;;;;;;;;;;;;;;;;;6206880;28;19913;-76
2023/08/14 11:14:58;;;;;;;;;;;;;;;;;;6203209;28;19955;-73
2023/08/14 11:17:58;;;;;;;;;;;;;;;;;;6219403;28;19941;-74
2023/08/14 11:20:58;;;;;;;;;;;;;;;;;;6210285;28;19971;-74
2023/08/14 11:23:58;;;;;;;;;;;;;;;;;;6221462;28;19905;-74
2023/08/14 11:26:58;;;;;;;;;;;;;;;;;;6210740;28;19909;-73
2023/08/14 11:29:59;;;;;;;;;;;;;;;;;;5865377;28;9999765;-74
2023/08/14 11:33:00;;;;;;;;;;;;;;;;;;6209801;28;19934;-74
2023/08/14 11:36:00;;;;;;;;;;;;;;;;;;6196447;28;19912;-74
2023/08/14 11:39:00;;;;;;;;;;;;;;;;;;6196867;28;20357;-79
2023/08/14 11:42:02;;;;;;;;;;;;;;;;;;6196156;28;20403;-75
2023/08/14 11:45:03;;;;;;;;;;;;;;;;;;6199383;28;19909;-75
2023/08/14 11:48:03;;;;;;;;;;;;;;;;;;6210354;28;19917;-76
2023/08/14 11:51:03;;;;;;;;;;;;;;;;;;6196204;28;20032;-75
2023/08/14 11:54:03;;;;;;;;;;;;;;;;;;6196803;28;19906;-77
2023/08/14 11:57:03;;;;;;;;;;;;;;;;;;6195947;28;20037;-74
2023/08/14 12:00:13;;;;;;;;;;;;;;;;;;6219068;28;19926;-73
2023/08/14 12:03:13;;;;;;;;;;;;;;;;;;6205610;28;20352;-74
2023/08/14 12:06:15;;;;;;;;;;;;;;;;;;6200123;28;20103;-76
2023/08/14 12:09:15;;;;;;;;;;;;;;;;;;6182371;28;19912;-76
2023/08/14 12:12:15;;;;;;;;;;;;;;;;;;6199603;28;19909;-76
2023/08/14 12:15:15;;;;;;;;;;;;;;;;;;6199535;28;19905;-76
2023/08/14 12:18:15;;;;;;;;;;;;;;;;;;6199901;28;19909;-76
2023/08/14 12:21:15;;;;;;;;;;;;;;;;;;6198034;28;19913;-77
2023/08/14 12:24:15;;;;;;;;;;;;;;;;;;6201564;28;19909;-76
2023/08/14 12:27:15;;;;;;;;;;;;;;;;;;6221646;28;19925;-76
2023/08/14 12:30:15;;;;;;;;;;;;;;;;;;6201327;28;19910;-75
2023/08/14 12:33:16;;;;;;;;;;;;;;;;;;6221867;28;19909;-76
2023/08/14 12:36:16;;;;;;;;;;;;;;;;;;6222349;28;20279;-75
2023/08/14 12:39:16;;;;;;;;;;;;;;;;;;6223808;28;19905;-74
2023/08/14 12:42:16;;;;;;;;;;;;;;;;;;6222002;28;19916;-74
2023/08/14 12:45:16;;;;;;;;;;;;;;;;;;6201333;28;19909;-76
2023/08/14 12:48:17;;;;;;;;;;;;;;;;;;6223429;28;20422;-75
2023/08/14 12:51:17;;;;;;;;;;;;;;;;;;6214900;28;19918;-76
2023/08/14 12:54:17;;;;;;;;;;;;;;;;;;6176305;28;19910;-75
2023/08/14 12:57:17;;;;;;;;;;;;;;;;;;6203382;28;19920;-75
2023/08/14 13:00:20;;;;;;;;;;;;;;;;;;6185938;28;19940;-75
2023/08/14 13:03:20;;;;;;;;;;;;;;;;;;6164756;28;20285;-76
2023/08/14 13:06:22;;;;;;;;;;;;;;;;;;6172486;28;19929;-76
2023/08/14 13:09:22;;;;;;;;;;;;;;;;;;6175353;28;19910;-74
2023/08/14 13:12:22;;;;;;;;;;;;;;;;;;6174618;28;19918;-74
2023/08/14 13:15:22;;;;;;;;;;;;;;;;;;6153480;28;20370;-74
2023/08/14 13:18:22;;;;;;;;;;;;;;;;;;6168122;28;19911;-75
2023/08/14 13:21:23;;;;;;;;;;;;;;;;;;6197295;28;19910;-75
2023/08/14 13:24:23;;;;;;;;;;;;;;;;;;6175741;28;20288;-75
2023/08/14 13:27:23;;;;;;;;;;;;;;;;;;6175787;28;19972;-75
2023/08/14 13:30:23;;;;;;;;;;;;;;;;;;6182003;28;19914;-74
2023/08/14 13:33:23;;;;;;;;;;;;;;;;;;6174194;28;19910;-74
2023/08/14 13:36:23;;;;;;;;;;;;;;;;;;6175147;28;19945;-77
2023/08/14 13:39:24;;;;;;;;;;;;;;;;;;6174595;28;19996;-74
2023/08/14 13:42:24;;;;;;;;;;;;;;;;;;6174538;28;19929;-74
2023/08/14 13:45:25;;;;;;;;;;;;;;;;;;6173334;28;20037;-74
2023/08/14 13:48:25;;;;;;;;;;;;;;;;;;6173915;28;19910;-74
2023/08/14 13:51:25;;;;;;;;;;;;;;;;;;6174178;28;19932;-74
2023/08/14 13:54:25;;;;;;;;;;;;;;;;;;6172113;28;19992;-75
2023/08/14 13:57:28;;;;;;;;;;;;;;;;;;6175750;28;19914;-75
2023/08/14 14:00:28;;;;;;;;;;;;;;;;;;6219116;28;19905;-75
2023/08/14 14:03:28;;;;;;;;;;;;;;;;;;6203177;28;19916;-73
2023/08/14 14:06:28;;;;;;;;;;;;;;;;;;6204127;28;20008;-74
2023/08/14 14:09:28;;;;;;;;;;;;;;;;;;6199046;28;20227;-74
2023/08/14 14:12:28;;;;;;;;;;;;;;;;;;6197678;28;20328;-75
2023/08/14 14:15:29;;;;;;;;;;;;;;;;;;6197606;28;19942;-76
2023/08/14 14:18:29;;;;;;;;;;;;;;;;;;6200932;28;19910;-81
2023/08/14 14:21:29;;;;;;;;;;;;;;;;;;6197296;28;19909;-74
2023/08/14 14:24:31;;;;;;;;;;;;;;;;;;6203671;28;19929;-76
2023/08/14 14:27:31;;;;;;;;;;;;;;;;;;6197507;28;19906;-75
2023/08/14 14:30:32;;;;;;;;;;;;;;;;;;6211050;28;19936;-75
2023/08/14 14:33:32;;;;;;;;;;;;;;;;;;6208193;28;19910;-75
2023/08/14 14:36:32;;;;;;;;;;;;;;;;;;6197073;28;19956;-74
2023/08/14 14:39:32;;;;;;;;;;;;;;;;;;6197472;28;19991;-74
2023/08/14 14:42:32;;;;;;;;;;;;;;;;;;6214108;28;19932;-76
2023/08/14 14:45:32;;;;;;;;;;;;;;;;;;6184860;28;19913;-74
2023/08/14 14:48:32;;;;;;;;;;;;;;;;;;6197337;28;19956;-74
2023/08/14 14:51:32;;;;;;;;;;;;;;;;;;6203086;28;19967;-74
2023/08/14 14:54:33;;;;;;;;;;;;;;;;;;6212043;28;19932;-75
2023/08/14 14:57:33;;;;;;;;;;;;;;;;;;6207973;28;19914;-75
2023/08/14 15:00:33;;;;;;;;;;;;;;;;;;6196667;28;19917;-79
2023/08/14 15:03:33;;;;;;;;;;;;;;;;;;6196246;28;19917;-75
2023/08/14 15:06:33;;;;;;;;;;;;;;;;;;6195927;28;19913;-75
2023/08/14 15:09:33;;;;;;;;;;;;;;;;;;6198140;28;19910;-73
2023/08/14 15:12:33;;;;;;;;;;;;;;;;;;6189028;28;19922;-73
2023/08/14 15:15:33;;;;;;;;;;;;;;;;;;6195896;28;19910;-74
2023/08/14 15:18:34;;;;;;;;;;;;;;;;;;6205727;28;19968;-73
2023/08/14 15:21:34;;;;;;;;;;;;;;;;;;6196397;28;20105;-73
2023/08/14 15:24:35;;;;;;;;;;;;;;;;;;6195951;28;19917;-74
2023/08/14 15:27:35;;;;;;;;;;;;;;;;;;6200770;28;19928;-73
2023/08/14 15:30:36;;;;;;;;;;;;;;;;;;6220045;28;20360;-74
2023/08/14 15:33:36;;;;;;;;;;;;;;;;;;6191715;28;19921;-75
2023/08/14 15:36:36;;;;;;;;;;;;;;;;;;6194124;28;20272;-73
2023/08/14 15:39:37;;;;;;;;;;;;;;;;;;6187552;28;19921;-74
2023/08/14 15:42:37;;;;;;;;;;;;;;;;;;6187554;28;19990;-73
2023/08/14 15:45:38;;;;;;;;;;;;;;;;;;6187455;28;19914;-73
2023/08/14 15:48:39;;;;;;;;;;;;;;;;;;6187924;28;20510;-73
2023/08/14 15:51:40;;;;;;;;;;;;;;;;;;6202283;28;19914;-73
2023/08/14 15:54:40;;;;;;;;;;;;;;;;;;6193399;28;19960;-72
2023/08/14 15:57:41;;;;;;;;;;;;;;;;;;6187424;28;19976;-73
2023/08/14 16:00:41;;;;;;;;;;;;;;;;;;6190146;28;19914;-76
2023/08/14 16:03:41;;;;;;;;;;;;;;;;;;6183223;28;20048;-77
2023/08/14 16:06:41;;;;;;;;;;;;;;;;;;6189387;28;20014;-72
2023/08/14 16:09:43;;;;;;;;;;;;;;;;;;6189457;28;20335;-75
2023/08/14 16:12:43;;;;;;;;;;;;;;;;;;6186280;28;20252;-75
2023/08/14 16:15:43;;;;;;;;;;;;;;;;;;6197190;28;20411;-75
2023/08/14 16:18:43;;;;;;;;;;;;;;;;;;6199934;28;19909;-77
2023/08/14 16:21:43;;;;;;;;;;;;;;;;;;6205327;28;19936;-75
2023/08/14 16:24:43;;;;;;;;;;;;;;;;;;6198242;28;20391;-74
2023/08/14 16:27:44;;;;;;;;;;;;;;;;;;6204513;28;19910;-75
2023/08/14 16:30:44;;;;;;;;;;;;;;;;;;6211423;28;19913;-75
2023/08/14 16:33:45;;;;;;;;;;;;;;;;;;6200062;28;20053;-74
2023/08/14 16:36:45;;;;;;;;;;;;;;;;;;6194134;28;19972;-76
2023/08/14 16:39:45;;;;;;;;;;;;;;;;;;6212737;28;19909;-75
2023/08/14 16:42:45;;;;;;;;;;;;;;;;;;6217653;28;19909;-75
2023/08/14 16:45:46;;;;;;;;;;;;;;;;;;6201664;28;19909;-76
2023/08/14 16:48:46;;;;;;;;;;;;;;;;;;6211965;28;19916;-76
2023/08/14 16:51:46;;;;;;;;;;;;;;;;;;6194795;28;19928;-74
2023/08/14 16:54:46;;;;;;;;;;;;;;;;;;6169472;28;19983;-75
2023/08/14 16:57:46;;;;;;;;;;;;;;;;;;6189440;28;19926;-80
2023/08/14 17:00:46;;;;;;;;;;;;;;;;;;6193839;28;19917;-76
2023/08/14 17:03:46;;;;;;;;;;;;;;;;;;6205538;28;20008;-75
2023/08/14 17:06:46;;;;;;;;;;;;;;;;;;5856478;28;10000182;-74
2023/08/14 17:09:46;;;;;;;;;;;;;;;;;;6183999;28;20066;-74
2023/08/14 17:12:47;;;;;;;;;;;;;;;;;;6183434;28;20064;-74
2023/08/14 17:15:47;;;;;;;;;;;;;;;;;;6188286;28;19918;-74
2023/08/14 17:18:47;;;;;;;;;;;;;;;;;;6190226;28;19917;-74
2023/08/14 17:21:47;;;;;;;;;;;;;;;;;;6186279;28;20284;-75
2023/08/14 17:24:47;;;;;;;;;;;;;;;;;;6165503;28;19925;-76
2023/08/14 17:27:47;;;;;;;;;;;;;;;;;;6171027;28;19917;-76
2023/08/14 17:30:48;;;;;;;;;;;;;;;;;;6189342;28;19929;-77
2023/08/14 17:33:48;;;;;;;;;;;;;;;;;;6185743;28;19960;-74
2023/08/14 17:36:48;;;;;;;;;;;;;;;;;;6186927;28;19938;-74
2023/08/14 17:39:48;;;;;;;;;;;;;;;;;;6181567;28;20029;-79
2023/08/14 17:42:48;;;;;;;;;;;;;;;;;;6184546;28;20015;-74
2023/08/14 17:45:49;;;;;;;;;;;;;;;;;;6187133;28;20017;-75
2023/08/14 17:48:49;;;;;;;;;;;;;;;;;;6179660;28;19914;-75
2023/08/14 17:51:49;;;;;;;;;;;;;;;;;;6181742;28;19925;-74
2023/08/14 17:54:49;;;;;;;;;;;;;;;;;;6186178;28;19975;-75
2023/08/14 17:57:49;;;;;;;;;;;;;;;;;;6188590;28;19925;-74
2023/08/14 18:00:49;;;;;;;;;;;;;;;;;;6189616;28;19913;-79
2023/08/14 18:03:50;;;;;;;;;;;;;;;;;;6168580;28;19976;-77
2023/08/14 18:06:50;;;;;;;;;;;;;;;;;;6186084;28;20053;-79
2023/08/14 18:09:50;;;;;;;;;;;;;;;;;;6187308;28;20439;-78
2023/08/14 18:12:50;;;;;;;;;;;;;;;;;;6184098;28;19929;-78
2023/08/14 18:15:52;;;;;;;;;;;;;;;;;;6182557;28;20036;-76
2023/08/14 18:18:53;;;;;;;;;;;;;;;;;;6185158;28;19914;-77
2023/08/14 18:21:54;;;;;;;;;;;;;;;;;;6188525;28;19920;-83
2023/08/14 18:24:55;;;;;;;;;;;;;;;;;;6186307;28;19928;-77
2023/08/14 18:27:55;;;;;;;;;;;;;;;;;;6162185;28;20364;-66
2023/08/14 18:30:55;;;;;;;;;;;;;;;;;;6181428;28;20319;-65
2023/08/14 18:33:55;;;;;;;;;;;;;;;;;;6182459;28;19914;-67
2023/08/14 18:36:55;;;;;;;;;;;;;;;;;;6179036;28;19961;-65
2023/08/14 18:39:55;;;;;;;;;;;;;;;;;;6183584;28;19959;-68
2023/08/14 18:42:55;;;;;;;;;;;;;;;;;;6183620;28;19936;-68
2023/08/14 18:45:55;;;;;;;;;;;;;;;;;;6184937;28;19917;-68
2023/08/14 18:48:56;;;;;;;;;;;;;;;;;;6190719;28;19925;-68
2023/08/14 18:51:56;;;;;;;;;;;;;;;;;;6186631;28;20446;-68
2023/08/14 18:54:56;;;;;;;;;;;;;;;;;;6187780;28;19920;-67
2023/08/14 18:57:56;;;;;;;;;;;;;;;;;;6193711;28;20402;-67
2023/08/14 19:00:56;;;;;;;;;;;;;;;;;;6187381;28;19913;-67
2023/08/14 19:03:56;;;;;;;;;;;;;;;;;;6183644;28;19913;-68
2023/08/14 19:06:56;;;;;;;;;;;;;;;;;;6180934;28;20028;-68
2023/08/14 19:09:56;;;;;;;;;;;;;;;;;;6188083;28;20239;-68
2023/08/14 19:12:56;;;;;;;;;;;;;;;;;;6186164;28;20395;-69
2023/08/14 19:15:57;;;;;;;;;;;;;;;;;;6186413;28;20471;-68
2023/08/14 19:18:57;;;;;;;;;;;;;;;;;;6190170;28;20398;-68
2023/08/14 19:21:57;;;;;;;;;;;;;;;;;;6188999;28;19987;-70
2023/08/14 19:24:58;;;;;;;;;;;;;;;;;;6196143;28;19924;-68
2023/08/14 19:27:58;;;;;;;;;;;;;;;;;;6197203;28;19918;-68
2023/08/14 19:30:58;;;;;;;;;;;;;;;;;;6197637;28;19924;-67
2023/08/14 19:34:01;;;;;;;;;;;;;;;;;;6192672;28;19942;-68
2023/08/14 19:37:01;;;;;;;;;;;;;;;;;;6195853;28;19920;-67
2023/08/14 19:40:02;;;;;;;;;;;;;;;;;;6190916;28;19917;-68
2023/08/14 19:43:02;;;;;;;;;;;;;;;;;;6183930;28;21513;-68
2023/08/14 19:46:02;;;;;;;;;;;;;;;;;;6189680;28;19916;-67
2023/08/14 19:49:03;;;;;;;;;;;;;;;;;;6198117;28;20240;-67
2023/08/14 19:52:03;;;;;;;;;;;;;;;;;;6209479;28;19917;-67
2023/08/14 19:55:03;;;;;;;;;;;;;;;;;;6195813;28;19941;-67
2023/08/14 19:58:03;;;;;;;;;;;;;;;;;;6191312;28;20062;-68
2023/08/14 20:01:04;;;;;;;;;;;;;;;;;;5496656;28;10000916;-68
2023/08/14 20:04:05;;;;;;;;;;;;;;;;;;6191570;28;20016;-68
2023/08/14 20:07:06;;;;;;;;;;;;;;;;;;6188776;28;19909;-66
2023/08/14 20:10:06;;;;;;;;;;;;;;;;;;6186818;28;19917;-65
2023/08/14 20:13:06;;;;;;;;;;;;;;;;;;6184418;28;21994;-65
2023/08/14 20:16:06;;;;;;;;;;;;;;;;;;6185192;28;20027;-64
2023/08/14 20:19:06;;;;;;;;;;;;;;;;;;6192732;28;19914;-71
2023/08/14 20:22:07;;;;;;;;;;;;;;;;;;6188321;28;19961;-64
2023/08/14 20:25:07;;;;;;;;;;;;;;;;;;6188312;28;19941;-66
2023/08/14 20:28:08;;;;;;;;;;;;;;;;;;6186132;28;19996;-63
2023/08/14 20:31:08;;;;;;;;;;;;;;;;;;6183818;28;19976;-61